Time;durP1;ratioP1;P1;durP2;ratioP2;P2;SDS_P1;SDS_P2;PMS_P1;PMS_P2;Temp;Humidity;BMP_temperature;BMP_pressure;BME280_temperature;BME280_humidity;BME280_pressure;Samples;Min_cycle;Max_cycle;Signal;HPM_P1;HPM_P2
2023/05/10 00:02:09;;;;;;;0.37;0.37;;;13.10;99.90;;;;;;5054812;28;20182;-67
2023/05/10 00:04:35;;;;;;;0.40;0.40;;;13.10;99.90;;;;;;5054594;28;20409;-67
2023/05/10 00:07:01;;;;;;;0.80;0.80;;;13.00;99.90;;;;;;5054668;28;20172;-67
2023/05/10 00:09:26;;;;;;;0.30;0.30;;;12.90;99.90;;;;;;5054606;28;20193;-67
2023/05/10 00:11:52;;;;;;;0.30;0.30;;;12.80;99.90;;;;;;5054413;28;20511;-67
2023/05/10 00:14:18;;;;;;;0.30;0.30;;;12.80;99.90;;;;;;5054424;28;20692;-67
2023/05/10 00:16:44;;;;;;;0.30;0.30;;;12.60;99.90;;;;;;5054154;28;20177;-67
2023/05/10 00:19:10;;;;;;;0.30;0.30;;;12.70;99.90;;;;;;5054257;28;20448;-67
2023/05/10 00:21:35;;;;;;;0.40;0.40;;;12.70;99.90;;;;;;5054255;28;20196;-67
2023/05/10 00:24:01;;;;;;;0.30;0.30;;;12.70;99.90;;;;;;5054252;28;20182;-67
2023/05/10 00:26:26;;;;;;;0.63;0.40;;;12.70;99.90;;;;;;5054139;28;20569;-67
2023/05/10 00:28:52;;;;;;;0.30;0.30;;;12.50;99.90;;;;;;5053833;28;20173;-67
2023/05/10 00:31:18;;;;;;;0.30;0.30;;;12.50;99.90;;;;;;5054271;28;20190;-67
2023/05/10 00:33:43;;;;;;;0.50;0.50;;;12.50;99.90;;;;;;5054119;28;20170;-67
2023/05/10 00:36:09;;;;;;;0.37;0.37;;;12.40;99.90;;;;;;5054005;28;20178;-67
2023/05/10 00:38:35;;;;;;;0.30;0.30;;;12.40;99.90;;;;;;5053841;28;20205;-67
2023/05/10 00:41:00;;;;;;;0.30;0.30;;;12.30;99.90;;;;;;5053991;28;20190;-67
2023/05/10 00:43:26;;;;;;;0.30;0.30;;;12.40;99.90;;;;;;5053874;28;20541;-67
2023/05/10 00:45:52;;;;;;;0.30;0.30;;;12.40;99.90;;;;;;5053752;28;20166;-67
2023/05/10 00:48:18;;;;;;;0.30;0.30;;;12.50;99.90;;;;;;5053782;28;20185;-67
2023/05/10 00:50:45;;;;;;;0.33;0.33;;;12.50;99.90;;;;;;5053768;28;20428;-67
2023/05/10 00:53:11;;;;;;;0.30;0.30;;;12.50;99.90;;;;;;5053887;28;20412;-67
2023/05/10 00:55:37;;;;;;;0.50;0.50;;;12.50;99.90;;;;;;5053724;28;20790;-67
2023/05/10 00:58:03;;;;;;;0.37;0.37;;;12.60;99.90;;;;;;5053639;28;20455;-67
2023/05/10 01:00:29;;;;;;;0.50;0.50;;;12.60;99.90;;;;;;5053721;28;20420;-67
2023/05/10 01:02:55;;;;;;;0.40;0.40;;;12.70;99.90;;;;;;5053543;28;20405;-67
2023/05/10 01:05:21;;;;;;;0.30;0.30;;;12.70;99.90;;;;;;5053678;28;20411;-67
2023/05/10 01:07:46;;;;;;;0.30;0.30;;;12.70;99.90;;;;;;5053566;28;20402;-67
2023/05/10 01:10:12;;;;;;;0.30;0.30;;;12.70;99.90;;;;;;5053407;28;20169;-67
2023/05/10 01:12:40;;;;;;;0.40;0.40;;;12.80;99.90;;;;;;5053689;28;20602;-67
2023/05/10 01:15:09;;;;;;;0.40;0.40;;;12.70;99.90;;;;;;5053393;28;20400;-66
2023/05/10 01:17:39;;;;;;;0.30;0.30;;;12.70;99.90;;;;;;5053495;28;20422;-67
2023/05/10 01:20:07;;;;;;;0.50;0.50;;;12.70;99.90;;;;;;5053301;28;20417;-67
2023/05/10 01:23:00;;;;;;;0.30;0.30;;;12.70;99.90;;;;;;5053174;28;20436;-67
2023/05/10 01:25:32;;;;;;;5.20;1.50;;;12.80;99.90;;;;;;5053207;28;20411;-67
2023/05/10 01:28:19;;;;;;;0.30;0.30;;;12.80;99.90;;;;;;5053502;28;20407;-67
2023/05/10 01:30:51;;;;;;;0.40;0.40;;;12.80;99.90;;;;;;5053202;28;20443;-67
2023/05/10 01:33:16;;;;;;;0.30;0.30;;;12.80;99.90;;;;;;5053296;28;20751;-67
2023/05/10 01:35:53;;;;;;;0.70;0.70;;;12.80;99.90;;;;;;5053043;28;20421;-67
2023/05/10 01:38:39;;;;;;;0.50;0.50;;;12.80;99.90;;;;;;5053130;28;20559;-67
2023/05/10 01:41:09;;;;;;;0.60;0.60;;;12.80;99.90;;;;;;5056193;28;20432;-67
2023/05/10 01:43:53;;;;;;;1.10;1.10;;;12.80;99.90;;;;;;5057490;28;20389;-67
2023/05/10 01:46:40;;;;;;;2.10;2.00;;;12.70;99.90;;;;;;5057112;28;20415;-67
2023/05/10 01:49:18;;;;;;;0.40;0.40;;;12.70;99.90;;;;;;5057282;28;20762;-67
2023/05/10 01:51:51;;;;;;;0.40;0.40;;;12.70;99.90;;;;;;5057056;28;20455;-67
2023/05/10 01:54:20;;;;;;;0.60;0.60;;;12.70;99.90;;;;;;5039467;28;20778;-67
2023/05/10 01:56:52;;;;;;;0.60;0.50;;;12.70;99.90;;;;;;5056860;28;20454;-67
2023/05/10 01:59:19;;;;;;;0.30;0.30;;;12.60;99.90;;;;;;5057001;28;20456;-66
2023/05/10 02:01:47;;;;;;;0.40;0.40;;;12.60;99.90;;;;;;5056914;28;20424;-67
2023/05/10 02:04:16;;;;;;;0.60;0.60;;;12.50;99.90;;;;;;5057112;28;20410;-67
2023/05/10 02:06:43;;;;;;;0.30;0.30;;;12.40;99.90;;;;;;5056754;28;20455;-66
2023/05/10 02:09:10;;;;;;;0.50;0.50;;;12.30;99.90;;;;;;5056932;28;20491;-67
2023/05/10 02:11:38;;;;;;;0.40;0.40;;;12.30;99.90;;;;;;5056688;28;20435;-67
2023/05/10 02:14:07;;;;;;;0.40;0.40;;;12.40;99.90;;;;;;5056714;28;20419;-67
2023/05/10 02:16:35;;;;;;;0.60;0.60;;;12.50;99.90;;;;;;5056664;28;20412;-67
2023/05/10 02:19:02;;;;;;;0.50;0.50;;;12.50;99.90;;;;;;5056628;28;20550;-67
2023/05/10 02:21:29;;;;;;;0.50;0.50;;;12.60;99.90;;;;;;5056572;28;20428;-67
2023/05/10 02:23:57;;;;;;;0.50;0.47;;;12.60;99.90;;;;;;5056382;28;20452;-67
2023/05/10 02:26:25;;;;;;;0.40;0.40;;;12.60;99.90;;;;;;5056326;28;20416;-67
2023/05/10 02:28:51;;;;;;;0.30;0.30;;;12.70;99.90;;;;;;5056533;28;20404;-67
2023/05/10 02:31:18;;;;;;;0.30;0.30;;;12.70;99.90;;;;;;5056492;28;20437;-67
2023/05/10 02:33:45;;;;;;;0.50;0.50;;;12.70;99.90;;;;;;5056386;28;20420;-67
2023/05/10 02:36:13;;;;;;;0.40;0.40;;;12.60;99.90;;;;;;5056068;28;20408;-67
2023/05/10 02:38:40;;;;;;;0.40;0.40;;;12.70;99.90;;;;;;5056149;28;20456;-67
2023/05/10 02:41:09;;;;;;;0.30;0.30;;;12.60;99.90;;;;;;5056141;28;20839;-67
2023/05/10 02:43:37;;;;;;;0.50;0.40;;;12.60;99.90;;;;;;5056248;28;20813;-67
2023/05/10 02:46:03;;;;;;;1.00;0.83;;;12.50;99.90;;;;;;5055956;28;20474;-67
2023/05/10 02:48:29;;;;;;;0.30;0.30;;;12.50;99.90;;;;;;5056193;28;20408;-67
2023/05/10 02:50:59;;;;;;;0.30;0.30;;;12.60;99.90;;;;;;5055613;28;20440;-67
2023/05/10 02:53:31;;;;;;;0.60;0.50;;;12.60;99.90;;;;;;5056226;28;20422;-67
2023/05/10 02:56:00;;;;;;;0.30;0.30;;;12.70;99.90;;;;;;5055928;28;20922;-67
2023/05/10 02:58:26;;;;;;;0.50;0.50;;;12.60;99.90;;;;;;5056268;28;20452;-67
2023/05/10 03:00:52;;;;;;;0.40;0.40;;;12.70;99.90;;;;;;5055907;28;20429;-67
2023/05/10 03:03:18;;;;;;;0.30;0.30;;;12.60;99.90;;;;;;5055825;28;20652;-67
2023/05/10 03:05:43;;;;;;;0.60;0.60;;;12.50;99.90;;;;;;5055700;28;20166;-66
2023/05/10 03:08:09;;;;;;;0.40;0.40;;;12.40;99.90;;;;;;5056098;28;20630;-67
2023/05/10 03:10:46;;;;;;;0.97;0.40;;;12.50;99.90;;;;;;5055825;28;20273;-67
2023/05/10 03:13:24;;;;;;;1.67;0.67;;;12.60;99.90;;;;;;5055733;28;20423;-67
2023/05/10 03:16:05;;;;;;;0.70;0.70;;;12.60;99.90;;;;;;5055424;28;20401;-67
2023/05/10 03:18:54;;;;;;;0.40;0.40;;;12.60;99.90;;;;;;5055454;28;20466;-67
2023/05/10 03:21:25;;;;;;;0.40;0.40;;;12.60;99.90;;;;;;5055374;28;20792;-67
2023/05/10 03:24:21;;;;;;;1.63;1.03;;;12.60;99.90;;;;;;5055330;28;20420;-67
2023/05/10 03:26:48;;;;;;;0.43;0.43;;;12.60;99.90;;;;;;5033844;28;20559;-67
2023/05/10 03:29:15;;;;;;;1.33;1.33;;;12.60;99.90;;;;;;5055382;28;20854;-67
2023/05/10 03:31:41;;;;;;;0.40;0.40;;;12.50;99.90;;;;;;5055350;28;20429;-67
2023/05/10 03:34:07;;;;;;;0.50;0.50;;;12.50;99.90;;;;;;5055416;28;20405;-67
2023/05/10 03:36:32;;;;;;;0.30;0.30;;;12.50;99.90;;;;;;5055046;28;20416;-66
2023/05/10 03:38:58;;;;;;;0.30;0.30;;;12.50;99.90;;;;;;5055169;28;20201;-67
2023/05/10 03:41:47;;;;;;;0.40;0.40;;;12.30;99.90;;;;;;5054986;28;20186;-67
2023/05/10 03:44:13;;;;;;;0.30;0.30;;;12.20;99.90;;;;;;5053766;28;20190;-67
2023/05/10 03:46:38;;;;;;;0.30;0.30;;;12.10;99.90;;;;;;5055055;28;20915;-66
2023/05/10 03:49:04;;;;;;;0.30;0.30;;;12.10;99.90;;;;;;5054154;28;20170;-67
2023/05/10 03:51:30;;;;;;;0.30;0.30;;;12.20;99.90;;;;;;5054861;28;20544;-67
2023/05/10 03:53:56;;;;;;;0.30;0.30;;;12.20;99.90;;;;;;5055113;28;20174;-67
2023/05/10 03:56:22;;;;;;;0.77;0.63;;;12.10;99.90;;;;;;5054708;28;20408;-67
2023/05/10 03:58:47;;;;;;;0.40;0.40;;;12.10;99.90;;;;;;5054720;28;20194;-67
2023/05/10 04:01:13;;;;;;;0.50;0.50;;;12.00;99.90;;;;;;5054629;28;20186;-67
2023/05/10 04:03:39;;;;;;;0.50;0.50;;;12.00;99.90;;;;;;5054177;28;20249;-67
2023/05/10 04:06:05;;;;;;;0.40;0.40;;;12.00;99.90;;;;;;5036539;28;20171;-67
2023/05/10 04:08:31;;;;;;;0.30;0.30;;;12.10;99.90;;;;;;5054719;28;20170;-67
2023/05/10 04:11:10;;;;;;;0.30;0.30;;;12.20;99.90;;;;;;5054590;28;20788;-67
2023/05/10 04:13:37;;;;;;;0.70;0.70;;;12.30;99.90;;;;;;5054469;28;20396;-67
2023/05/10 04:16:03;;;;;;;0.30;0.30;;;12.30;99.90;;;;;;5054376;28;20498;-67
2023/05/10 04:18:30;;;;;;;0.87;0.70;;;12.30;99.90;;;;;;5054285;28;20468;-67
2023/05/10 04:20:55;;;;;;;1.07;0.60;;;12.30;99.90;;;;;;5054189;28;20436;-66
2023/05/10 04:23:21;;;;;;;0.30;0.30;;;12.30;99.90;;;;;;5054192;28;20797;-67
2023/05/10 04:25:47;;;;;;;0.40;0.40;;;12.30;99.90;;;;;;5054121;28;20302;-67
2023/05/10 04:28:12;;;;;;;0.53;0.53;;;12.30;99.90;;;;;;5054210;28;20182;-67
2023/05/10 04:30:40;;;;;;;0.40;0.40;;;12.30;99.90;;;;;;5054012;28;20515;-66
2023/05/10 04:33:05;;;;;;;0.50;0.50;;;12.30;99.90;;;;;;5054091;28;20177;-67
2023/05/10 04:35:31;;;;;;;1.13;0.83;;;12.20;99.90;;;;;;5054022;28;20413;-67
2023/05/10 04:37:57;;;;;;;0.50;0.50;;;12.10;99.90;;;;;;5053908;28;20212;-67
2023/05/10 04:40:22;;;;;;;1.17;1.17;;;11.90;99.90;;;;;;5054067;28;20173;-67
2023/05/10 04:42:48;;;;;;;0.40;0.40;;;11.90;99.90;;;;;;5053951;28;20176;-67
2023/05/10 04:45:16;;;;;;;0.83;0.83;;;12.00;99.90;;;;;;5053667;28;20257;-66
2023/05/10 04:47:42;;;;;;;0.30;0.30;;;12.10;99.90;;;;;;5053773;28;20649;-67
2023/05/10 04:50:08;;;;;;;0.40;0.40;;;12.30;99.90;;;;;;5053865;28;20405;-67
2023/05/10 04:52:33;;;;;;;0.80;0.50;;;12.20;99.90;;;;;;5053697;28;20182;-67
2023/05/10 04:54:59;;;;;;;0.70;0.70;;;12.20;99.90;;;;;;5054143;28;20215;-67
2023/05/10 04:57:24;;;;;;;0.60;0.60;;;12.20;99.90;;;;;;5053676;28;20181;-67
2023/05/10 04:59:50;;;;;;;0.37;0.37;;;12.30;99.90;;;;;;5053587;28;20280;-67
2023/05/10 05:02:16;;;;;;;0.40;0.40;;;12.20;99.90;;;;;;5053502;28;20189;-67
2023/05/10 05:04:42;;;;;;;0.70;0.70;;;12.10;99.90;;;;;;5053635;28;20221;-67
2023/05/10 05:07:07;;;;;;;2.20;0.80;;;12.00;99.90;;;;;;5053479;28;20257;-67
2023/05/10 05:09:33;;;;;;;0.60;0.60;;;11.90;99.90;;;;;;5053617;28;20218;-67
2023/05/10 05:11:59;;;;;;;0.57;0.50;;;11.90;99.90;;;;;;5053365;28;20201;-67
2023/05/10 05:14:25;;;;;;;0.40;0.40;;;12.10;99.90;;;;;;5053585;28;20181;-67
2023/05/10 05:16:51;;;;;;;0.50;0.50;;;12.10;99.90;;;;;;5053294;28;20409;-67
2023/05/10 05:19:17;;;;;;;0.70;0.70;;;12.20;99.90;;;;;;5053413;28;20202;-67
2023/05/10 05:21:43;;;;;;;0.60;0.60;;;12.20;99.90;;;;;;5053196;28;20430;-67
2023/05/10 05:24:09;;;;;;;0.83;0.80;;;12.20;99.90;;;;;;5053120;28;20190;-66
2023/05/10 05:26:36;;;;;;;0.40;0.40;;;12.10;99.90;;;;;;5053231;28;20465;-67
2023/05/10 05:29:02;;;;;;;0.30;0.30;;;12.10;99.90;;;;;;5053320;28;20809;-67
2023/05/10 05:31:28;;;;;;;0.50;0.50;;;12.10;99.90;;;;;;5053197;28;20433;-67
2023/05/10 05:33:54;;;;;;;0.50;0.50;;;12.20;99.90;;;;;;5053228;28;20763;-67
2023/05/10 05:36:19;;;;;;;0.40;0.40;;;12.20;99.90;;;;;;5052996;28;20496;-67
2023/05/10 05:38:45;;;;;;;0.40;0.40;;;12.20;99.90;;;;;;5052980;28;20194;-66
2023/05/10 05:41:10;;;;;;;0.30;0.30;;;12.20;99.90;;;;;;5053089;28;20213;-67
2023/05/10 05:43:36;;;;;;;0.40;0.40;;;12.30;99.90;;;;;;5053180;28;20181;-67
2023/05/10 05:46:02;;;;;;;0.40;0.40;;;12.30;99.90;;;;;;5052909;28;20174;-66
2023/05/10 05:48:29;;;;;;;0.50;0.50;;;12.40;99.90;;;;;;5053248;28;20629;-66
2023/05/10 05:50:58;;;;;;;0.40;0.40;;;12.30;99.90;;;;;;5053181;28;20198;-66
2023/05/10 05:53:24;;;;;;;0.30;0.30;;;12.40;99.90;;;;;;5035145;28;20413;-67
2023/05/10 05:55:58;;;;;;;0.40;0.40;;;12.40;99.90;;;;;;5052891;28;20967;-67
2023/05/10 05:58:24;;;;;;;0.40;0.40;;;12.50;99.90;;;;;;5052872;28;20243;-67
2023/05/10 06:00:51;;;;;;;0.30;0.30;;;12.50;99.90;;;;;;5052995;28;20439;-67
2023/05/10 06:03:17;;;;;;;0.63;0.63;;;12.50;99.90;;;;;;5052924;28;20519;-67
2023/05/10 06:05:43;;;;;;;0.30;0.30;;;12.40;99.90;;;;;;5052828;28;20497;-67
2023/05/10 06:08:09;;;;;;;0.30;0.30;;;12.40;99.90;;;;;;5053155;28;20973;-67
2023/05/10 06:10:35;;;;;;;2.43;0.93;;;12.30;99.90;;;;;;5052794;28;20432;-67
2023/05/10 06:13:02;;;;;;;3.17;0.97;;;12.20;99.90;;;;;;5052969;28;20420;-67
2023/05/10 06:15:27;;;;;;;0.30;0.30;;;12.20;99.90;;;;;;5052681;28;20436;-66
2023/05/10 06:17:53;;;;;;;0.30;0.30;;;12.20;99.90;;;;;;5052771;28;20820;-67
2023/05/10 06:20:19;;;;;;;0.30;0.30;;;12.10;99.90;;;;;;5052607;28;20412;-67
2023/05/10 06:22:44;;;;;;;0.40;0.40;;;12.30;99.90;;;;;;5052660;28;20216;-67
2023/05/10 06:25:11;;;;;;;0.50;0.50;;;12.40;99.90;;;;;;5052622;28;20170;-67
2023/05/10 06:27:36;;;;;;;1.47;0.60;;;12.40;99.90;;;;;;5056345;28;20688;-67
2023/05/10 06:30:02;;;;;;;0.37;0.37;;;12.50;99.90;;;;;;5056391;28;20492;-67
2023/05/10 06:32:28;;;;;;;1.17;1.17;;;12.40;99.90;;;;;;5056357;28;20552;-67
2023/05/10 06:34:54;;;;;;;0.40;0.40;;;12.50;99.90;;;;;;5056484;28;20228;-67
2023/05/10 06:37:20;;;;;;;0.40;0.40;;;12.50;99.90;;;;;;5056014;28;20170;-67
2023/05/10 06:39:45;;;;;;;0.30;0.30;;;12.50;99.90;;;;;;5056244;28;20505;-66
2023/05/10 06:42:11;;;;;;;0.40;0.40;;;12.40;99.90;;;;;;5056393;28;20265;-67
2023/05/10 06:44:37;;;;;;;0.40;0.40;;;12.30;99.90;;;;;;5056264;28;20581;-67
2023/05/10 06:47:02;;;;;;;0.30;0.30;;;12.30;99.90;;;;;;5056115;28;20253;-66
2023/05/10 06:49:28;;;;;;;0.40;0.40;;;12.30;99.90;;;;;;5056230;28;20182;-67
2023/05/10 06:51:55;;;;;;;0.60;0.40;;;12.30;99.90;;;;;;5055974;28;20563;-66
2023/05/10 06:54:21;;;;;;;0.60;0.60;;;12.30;99.90;;;;;;5056128;28;20170;-67
2023/05/10 06:56:46;;;;;;;0.60;0.60;;;12.20;99.90;;;;;;5055834;28;20413;-66
2023/05/10 06:59:13;;;;;;;0.50;0.50;;;12.20;99.90;;;;;;5055859;28;20210;-67
2023/05/10 07:01:39;;;;;;;1.73;1.63;;;12.20;99.90;;;;;;5055697;28;20665;-67
2023/05/10 07:04:05;;;;;;;0.63;0.63;;;12.20;99.90;;;;;;5055810;28;20462;-66
2023/05/10 07:06:30;;;;;;;0.40;0.40;;;12.30;99.90;;;;;;5055552;28;20495;-66
2023/05/10 07:08:56;;;;;;;0.40;0.40;;;12.40;99.90;;;;;;5055772;28;20173;-67
2023/05/10 07:11:22;;;;;;;0.40;0.40;;;12.40;99.90;;;;;;5055565;28;20605;-67
2023/05/10 07:13:48;;;;;;;0.40;0.40;;;12.50;99.90;;;;;;5055825;28;20415;-67
2023/05/10 07:16:13;;;;;;;0.97;0.97;;;12.50;99.90;;;;;;5055480;28;20170;-67
2023/05/10 07:18:39;;;;;;;0.77;0.70;;;12.70;99.90;;;;;;5055620;28;20255;-66
2023/05/10 07:21:05;;;;;;;1.13;1.13;;;12.80;99.90;;;;;;5055467;28;20324;-67
2023/05/10 07:23:30;;;;;;;0.50;0.50;;;13.00;99.90;;;;;;5055135;28;20659;-67
2023/05/10 07:25:57;;;;;;;0.60;0.60;;;13.10;99.90;;;;;;5053910;28;20174;-65
2023/05/10 07:28:24;;;;;;;0.70;0.70;;;13.20;99.90;;;;;;5055344;28;20737;-68
2023/05/10 07:30:50;;;;;;;0.90;0.90;;;13.10;99.90;;;;;;5055502;28;20432;-68
2023/05/10 07:33:16;;;;;;;1.17;0.73;;;12.90;99.90;;;;;;5055534;28;20420;-68
2023/05/10 07:35:42;;;;;;;0.60;0.60;;;12.90;99.90;;;;;;5055494;28;20499;-67
2023/05/10 07:38:08;;;;;;;0.60;0.60;;;12.90;99.90;;;;;;5054161;28;20455;-68
2023/05/10 07:40:34;;;;;;;0.60;0.60;;;13.00;99.90;;;;;;5055438;28;20973;-68
2023/05/10 07:43:01;;;;;;;1.00;0.77;;;13.10;99.90;;;;;;5055339;28;20189;-63
2023/05/10 07:45:27;;;;;;;0.40;0.40;;;13.30;99.90;;;;;;5037842;28;20177;-65
2023/05/10 07:47:52;;;;;;;0.40;0.40;;;13.50;99.90;;;;;;5055819;28;20552;-67
2023/05/10 07:50:18;;;;;;;0.40;0.40;;;14.00;99.90;;;;;;5054525;28;20166;-67
2023/05/10 07:52:44;;;;;;;0.90;0.50;;;13.80;99.60;;;;;;5054473;28;20249;-67
2023/05/10 07:55:09;;;;;;;0.40;0.40;;;13.80;99.90;;;;;;5053661;28;20166;-67
2023/05/10 07:57:35;;;;;;;3.40;1.47;;;13.90;99.90;;;;;;5053837;28;20253;-67
2023/05/10 08:00:01;;;;;;;0.50;0.50;;;14.30;99.40;;;;;;5054534;28;20205;-67
2023/05/10 08:02:26;;;;;;;0.50;0.50;;;14.40;98.90;;;;;;5053435;28;20201;-67
2023/05/10 08:04:53;;;;;;;2.87;0.90;;;14.80;98.50;;;;;;5054720;28;20202;-67
2023/05/10 08:07:19;;;;;;;0.50;0.50;;;15.20;98.20;;;;;;5054453;28;20957;-67
2023/05/10 08:09:44;;;;;;;0.57;0.50;;;15.40;97.70;;;;;;5054877;28;20173;-67
2023/05/10 08:12:11;;;;;;;0.40;0.40;;;15.70;97.80;;;;;;5054931;28;20731;-67
2023/05/10 08:14:37;;;;;;;0.50;0.50;;;16.00;97.80;;;;;;5054926;28;20182;-67
2023/05/10 08:17:03;;;;;;;0.40;0.40;;;16.20;95.10;;;;;;5054314;28;20801;-67
2023/05/10 08:19:29;;;;;;;0.67;0.50;;;16.30;95.10;;;;;;5054649;28;20556;-69
2023/05/10 08:21:57;;;;;;;0.30;0.30;;;16.20;94.70;;;;;;5054599;28;20435;-69
2023/05/10 08:24:23;;;;;;;27.17;1.20;;;16.10;95.30;;;;;;5054274;28;20190;-69
2023/05/10 08:26:49;;;;;;;0.40;0.40;;;16.00;96.10;;;;;;5054553;28;20466;-69
2023/05/10 08:29:15;;;;;;;0.30;0.30;;;16.00;95.10;;;;;;5054856;28;20175;-70
2023/05/10 08:31:40;;;;;;;0.30;0.30;;;16.10;96.40;;;;;;5054149;28;20587;-70
2023/05/10 08:34:06;;;;;;;0.50;0.50;;;16.40;94.80;;;;;;5054267;28;20417;-69
2023/05/10 08:36:32;;;;;;;0.50;0.50;;;16.60;93.50;;;;;;5053422;28;20636;-69
2023/05/10 08:38:57;;;;;;;0.30;0.30;;;16.70;93.50;;;;;;5053146;28;20198;-70
2023/05/10 08:41:25;;;;;;;3.70;1.03;;;16.80;93.30;;;;;;5053918;28;20190;-69
2023/05/10 08:43:52;;;;;;;0.60;0.60;;;16.70;93.50;;;;;;5054411;28;20170;-70
2023/05/10 08:46:19;;;;;;;0.50;0.50;;;16.40;94.10;;;;;;5053818;28;20411;-71
2023/05/10 08:48:47;;;;;;;0.60;0.60;;;16.30;95.20;;;;;;5053715;28;20891;-70
2023/05/10 08:51:22;;;;;;;0.50;0.50;;;16.20;95.10;;;;;;5054060;28;20432;-70
2023/05/10 08:53:48;;;;;;;0.60;0.60;;;16.30;95.20;;;;;;5054220;28;20410;-70
2023/05/10 08:56:15;;;;;;;0.50;0.50;;;16.40;94.00;;;;;;5053699;28;20410;-70
2023/05/10 08:58:41;;;;;;;0.70;0.60;;;16.30;94.60;;;;;;5053597;28;20285;-69
2023/05/10 09:01:08;;;;;;;0.90;0.80;;;16.30;93.90;;;;;;5053719;28;20505;-69
2023/05/10 09:03:34;;;;;;;0.50;0.50;;;16.50;93.70;;;;;;5034841;28;20828;-70
2023/05/10 09:06:00;;;;;;;0.40;0.40;;;16.80;93.50;;;;;;5053454;28;20406;-69
2023/05/10 09:08:26;;;;;;;0.50;0.50;;;17.10;92.30;;;;;;5053952;28;20499;-70
2023/05/10 09:10:53;;;;;;;0.60;0.60;;;17.40;92.20;;;;;;5053871;28;20192;-68
2023/05/10 09:13:20;;;;;;;0.30;0.30;;;17.30;90.90;;;;;;5053505;28;20504;-70
2023/05/10 09:15:47;;;;;;;0.53;0.53;;;17.20;92.40;;;;;;5053251;28;20418;-70
2023/05/10 09:18:13;;;;;;;0.87;0.77;;;17.20;92.30;;;;;;5052002;28;20457;-70
2023/05/10 09:20:39;;;;;;;0.40;0.40;;;17.20;91.20;;;;;;5052452;28;20428;-70
2023/05/10 12:09:31;;;;;;;0.40;0.40;;;16.80;80.90;;;;;;5013712;28;21011;-69
2023/05/10 12:11:57;;;;;;;1.43;0.67;;;16.30;82.80;;;;;;5015925;28;20434;-67
2023/05/10 12:14:24;;;;;;;0.43;0.43;;;16.10;83.10;;;;;;5023171;28;20187;-67
2023/05/10 12:16:50;;;;;;;0.80;0.50;;;16.00;84.70;;;;;;5033813;28;20184;-67
2023/05/10 12:19:22;;;;;;;0.60;0.50;;;16.20;94.60;;;;;;5033990;28;20964;-67
2023/05/10 12:21:48;;;;;;;0.30;0.30;;;16.10;84.60;;;;;;5033885;28;20881;-67
2023/05/10 12:24:17;;;;;;;0.40;0.40;;;15.90;85.40;;;;;;5033465;28;20402;-67
2023/05/10 12:26:43;;;;;;;0.83;0.70;;;;;;;;;;5033825;28;20417;-68
2023/05/10 12:29:16;;;;;;;0.40;0.40;;;15.90;93.30;;;;;;5033863;28;20414;-67
2023/05/10 12:32:00;;;;;;;1.33;1.27;;;16.00;87.60;;;;;;5028518;28;20448;-67
2023/05/10 12:34:29;;;;;;;0.70;0.67;;;16.50;83.30;;;;;;5019355;28;20974;-68
2023/05/10 12:36:55;;;;;;;0.40;0.40;;;16.50;83.30;;;;;;5000869;28;20424;-69
2023/05/10 12:39:21;;;;;;;0.30;0.30;;;16.40;83.00;;;;;;5014159;28;20454;-66
2023/05/10 12:41:47;;;;;;;0.70;0.50;;;16.20;83.80;;;;;;5025262;28;20180;-68
2023/05/10 12:44:12;;;;;;;0.50;0.50;;;16.30;82.60;;;;;;5034009;28;20600;-68
2023/05/10 12:46:38;;;;;;;0.50;0.50;;;16.40;83.10;;;;;;5033962;28;20182;-69
2023/05/10 12:49:03;;;;;;;0.60;0.60;;;16.40;83.50;;;;;;5034350;28;20665;-69
2023/05/10 12:51:30;;;;;;;1.00;0.97;;;16.10;82.30;;;;;;5033884;28;20179;-68
2023/05/10 12:53:56;;;;;;;0.57;0.57;;;15.70;83.50;;;;;;5033956;28;20221;-69
2023/05/10 12:56:21;;;;;;;0.60;0.60;;;15.60;85.80;;;;;;5033854;28;20893;-69
2023/05/10 12:58:47;;;;;;;0.40;0.40;;;15.80;87.00;;;;;;5033869;28;20206;-69
2023/05/10 13:01:14;;;;;;;0.40;0.40;;;16.10;85.30;;;;;;5033637;28;20186;-69
2023/05/10 13:03:40;;;;;;;0.40;0.40;;;16.30;83.70;;;;;;5033894;28;20410;-69
2023/05/10 13:06:06;;;;;;;0.30;0.30;;;16.40;85.60;;;;;;5014212;28;20922;-68
2023/05/10 13:08:33;;;;;;;0.30;0.30;;;16.50;86.20;;;;;;5030923;28;20217;-68
2023/05/10 13:11:03;;;;;;;0.30;0.30;;;16.40;84.00;;;;;;5032354;28;20511;-68
2023/05/10 13:13:28;;;;;;;0.50;0.50;;;16.10;86.10;;;;;;5033672;28;20776;-68
2023/05/10 13:15:54;;;;;;;0.70;0.70;;;16.00;87.70;;;;;;5032314;28;20563;-68
2023/05/10 13:18:20;;;;;;;0.50;0.50;;;16.20;89.40;;;;;;5032873;28;20251;-68
2023/05/10 13:20:45;;;;;;;0.90;0.83;;;16.50;84.80;;;;;;5028165;28;20207;-68
2023/05/10 13:23:11;;;;;;;0.40;0.40;;;16.50;81.90;;;;;;5026295;28;20410;-68
2023/05/10 13:25:37;;;;;;;6.57;0.80;;;16.60;82.50;;;;;;5020071;28;20178;-68
2023/05/10 13:28:03;;;;;;;0.40;0.40;;;16.60;81.70;;;;;;5031744;28;20174;-70
2023/05/10 13:30:28;;;;;;;0.50;0.50;;;16.70;83.40;;;;;;5031797;28;20765;-69
2023/05/10 13:32:54;;;;;;;0.30;0.30;;;16.90;82.90;;;;;;5031664;28;20182;-69
2023/05/10 13:35:20;;;;;;;0.30;0.30;;;16.90;79.30;;;;;;5032004;28;20203;-69
2023/05/10 13:37:46;;;;;;;0.30;0.30;;;17.00;82.20;;;;;;5031862;28;20538;-69
2023/05/10 13:40:12;;;;;;;0.40;0.40;;;17.20;80.20;;;;;;5033280;28;20293;-69
2023/05/10 13:42:37;;;;;;;0.40;0.40;;;17.30;77.70;;;;;;5033251;28;20177;-69
2023/05/10 13:45:03;;;;;;;0.87;0.83;;;17.20;78.30;;;;;;5033054;28;20406;-69
2023/05/10 13:47:30;;;;;;;0.50;0.50;;;16.90;78.50;;;;;;5033334;28;20179;-69
2023/05/10 13:49:55;;;;;;;0.30;0.30;;;17.00;80.20;;;;;;5033410;28;20479;-69
2023/05/10 13:52:21;;;;;;;0.50;0.50;;;16.90;79.40;;;;;;5033706;28;20421;-69
2023/05/10 13:54:47;;;;;;;0.30;0.30;;;16.90;80.50;;;;;;5033210;28;20410;-69
2023/05/10 13:57:13;;;;;;;0.30;0.30;;;17.00;79.00;;;;;;5033756;28;20171;-69
2023/05/10 13:59:39;;;;;;;0.30;0.30;;;16.90;76.70;;;;;;5033226;28;20206;-69
2023/05/10 14:02:06;;;;;;;0.43;0.43;;;16.80;76.90;;;;;;5033172;28;20485;-69
2023/05/10 14:04:31;;;;;;;0.80;0.80;;;16.70;79.60;;;;;;5033163;28;20174;-69
2023/05/10 14:06:57;;;;;;;0.30;0.30;;;16.60;79.10;;;;;;5033474;28;20405;-69
2023/05/10 14:09:23;;;;;;;0.40;0.40;;;16.30;76.90;;;;;;5033068;28;20225;-69
2023/05/10 14:11:49;;;;;;;0.40;0.40;;;16.20;78.80;;;;;;5033450;28;20179;-69
2023/05/10 14:14:14;;;;;;;0.30;0.30;;;16.30;80.00;;;;;;5032970;28;20542;-69
2023/05/10 14:16:44;;;;;;;0.30;0.30;;;16.30;78.90;;;;;;5032774;28;20213;-69
2023/05/10 14:19:11;;;;;;;0.30;0.30;;;16.40;81.10;;;;;;5032822;28;20328;-69
2023/05/10 14:21:36;;;;;;;0.40;0.40;;;16.50;79.20;;;;;;5033557;28;20405;-69
2023/05/10 14:24:02;;;;;;;0.33;0.33;;;16.60;80.20;;;;;;5033370;28;20402;-69
2023/05/10 14:26:28;;;;;;;0.70;0.70;;;16.40;80.70;;;;;;5032851;28;20181;-69
2023/05/10 14:28:53;;;;;;;0.40;0.40;;;16.30;81.30;;;;;;5033071;28;20179;-69
2023/05/10 14:31:20;;;;;;;0.40;0.40;;;16.20;82.30;;;;;;5032979;28;20198;-69
2023/05/10 14:33:46;;;;;;;0.30;0.30;;;16.20;82.70;;;;;;5033048;28;20174;-69
2023/05/10 14:36:12;;;;;;;0.40;0.40;;;16.40;81.60;;;;;;5032703;28;20437;-69
2023/05/10 14:38:39;;;;;;;0.30;0.30;;;16.50;81.50;;;;;;5033206;28;20437;-69
2023/05/10 14:41:05;;;;;;;0.30;0.30;;;16.40;82.20;;;;;;5032683;28;20429;-69
2023/05/10 14:43:31;;;;;;;0.40;0.40;;;16.60;82.70;;;;;;5031296;28;20496;-69
2023/05/10 14:45:56;;;;;;;0.67;0.67;;;16.90;83.90;;;;;;5031982;28;20178;-69
2023/05/10 14:48:22;;;;;;;0.30;0.30;;;17.00;80.80;;;;;;5035729;28;20174;-69
2023/05/10 14:50:49;;;;;;;0.30;0.30;;;17.10;81.50;;;;;;5035878;28;20191;-69
2023/05/10 14:53:15;;;;;;;0.30;0.30;;;17.30;81.10;;;;;;5036299;28;20195;-69
2023/05/10 14:55:40;;;;;;;0.40;0.40;;;17.30;80.40;;;;;;5035841;28;20444;-69
2023/05/10 14:58:06;;;;;;;0.67;0.67;;;17.20;81.20;;;;;;5036026;28;20707;-69
2023/05/10 15:00:32;;;;;;;0.30;0.30;;;17.20;78.80;;;;;;5035960;28;20190;-69
2023/05/10 15:02:57;;;;;;;0.30;0.30;;;17.20;78.90;;;;;;5036159;28;20171;-69
2023/05/10 15:05:23;;;;;;;0.30;0.30;;;17.00;80.80;;;;;;5035866;28;20171;-69
2023/05/10 15:07:49;;;;;;;0.30;0.30;;;16.90;81.70;;;;;;5036080;28;20171;-69
2023/05/10 15:10:15;;;;;;;0.43;0.43;;;16.80;78.20;;;;;;5035784;28;20207;-69
2023/05/10 15:12:40;;;;;;;0.67;0.67;;;16.70;78.70;;;;;;5035680;28;20217;-69
2023/05/10 15:15:07;;;;;;;0.40;0.40;;;16.90;79.00;;;;;;5035801;28;20465;-69
2023/05/10 15:17:33;;;;;;;0.40;0.40;;;17.00;80.10;;;;;;5035714;28;20202;-69
2023/05/10 15:19:58;;;;;;;0.30;0.30;;;17.00;80.90;;;;;;5035448;28;20479;-69
2023/05/10 15:22:24;;;;;;;0.53;0.53;;;16.90;79.10;;;;;;5035728;28;20397;-69
2023/05/10 15:24:50;;;;;;;0.43;0.43;;;16.90;79.60;;;;;;5017590;28;20226;-69
2023/05/10 15:27:15;;;;;;;0.40;0.40;;;17.00;80.20;;;;;;5035520;28;20249;-69
2023/05/10 15:29:41;;;;;;;0.40;0.40;;;17.00;80.70;;;;;;5035397;28;20184;-69
2023/05/10 15:32:07;;;;;;;0.30;0.30;;;17.00;80.20;;;;;;5035562;28;20175;-69
2023/05/10 15:34:32;;;;;;;0.37;0.37;;;17.00;80.40;;;;;;5035513;28;20529;-69